Time;durP1;ratioP1;P1;durP2;ratioP2;P2;SDS_P1;SDS_P2;PMS_P1;PMS_P2;Temp;Humidity;BMP_temperature;BMP_pressure;BME280_temperature;BME280_humidity;BME280_pressure;Samples;Min_cycle;Max_cycle;Signal;HPM_P1;HPM_P2
2022/03/31 00:01:14;;;;;;;13.65;5.28;;;;;;;13.14;50.66;93585.50;5018208;28;20235;-75
2022/03/31 00:03:41;;;;;;;23.83;6.00;;;;;;;13.25;50.38;93589.19;5020485;28;20215;-75
2022/03/31 00:06:08;;;;;;;19.17;5.03;;;;;;;13.29;50.08;93584.56;5025155;28;20637;-75
2022/03/31 00:08:35;;;;;;;13.02;5.28;;;;;;;13.28;49.46;93577.53;5024083;28;20595;-76
2022/03/31 00:11:03;;;;;;;17.27;5.20;;;;;;;13.44;48.97;93580.84;5019045;28;20201;-76
2022/03/31 00:13:31;;;;;;;20.10;6.25;;;;;;;13.41;49.29;93580.81;5018500;28;20327;-76
2022/03/31 00:15:59;;;;;;;19.92;4.75;;;;;;;13.43;49.61;93582.00;5019094;28;20204;-76
2022/03/31 00:18:27;;;;;;;17.15;5.28;;;;;;;13.34;49.83;93591.63;5018145;28;20201;-75
2022/03/31 00:20:54;;;;;;;16.73;5.30;;;;;;;13.16;50.35;93589.44;5024296;28;20201;-77
2022/03/31 00:23:21;;;;;;;29.33;8.85;;;;;;;13.19;50.50;93579.78;5023857;28;20190;-75
2022/03/31 00:25:48;;;;;;;15.75;5.88;;;;;;;13.18;50.46;93578.22;5023799;28;20225;-76
2022/03/31 00:28:16;;;;;;;19.75;5.22;;;;;;;13.20;50.52;93569.69;5024954;28;20200;-75
2022/03/31 00:30:43;;;;;;;17.17;5.25;;;;;;;13.16;50.49;93575.06;5019638;28;20258;-76
2022/03/31 00:33:11;;;;;;;16.10;5.40;;;;;;;13.13;50.83;93564.91;5017363;28;20236;-75
2022/03/31 00:35:37;;;;;;;14.32;5.22;;;;;;;13.14;50.55;93566.47;5023545;28;20213;-77
2022/03/31 00:38:04;;;;;;;23.65;6.47;;;;;;;13.17;50.48;93565.75;5024761;28;20266;-75
2022/03/31 00:40:32;;;;;;;16.65;6.22;;;;;;;13.08;50.83;93557.09;5020475;28;20208;-76
2022/03/31 00:43:00;;;;;;;13.98;5.40;;;;;;;13.13;50.66;93551.31;5018208;28;20200;-75
2022/03/31 00:45:32;;;;;;;28.85;10.50;;;;;;;13.13;50.42;93534.97;5022852;28;20237;-77
2022/03/31 00:47:59;;;;;;;20.55;7.85;;;;;;;13.23;50.44;93547.97;5025175;28;20197;-75
2022/03/31 00:50:26;;;;;;;19.27;6.53;;;;;;;13.18;50.82;93542.84;5021518;28;20698;-75
2022/03/31 00:52:54;;;;;;;22.98;6.90;;;;;;;13.19;50.83;93558.03;5018009;28;20664;-75
2022/03/31 00:55:22;;;;;;;18.40;5.82;;;;;;;13.11;51.12;93545.47;5021219;28;20539;-75
2022/03/31 00:57:55;;;;;;;19.75;5.20;;;;;;;13.01;51.40;93543.38;5024504;28;20212;-76
2022/03/31 01:00:22;;;;;;;19.58;6.05;;;;;;;12.89;51.57;93543.63;5022659;28;20622;-75
2022/03/31 01:02:51;;;;;;;21.00;5.80;;;;;;;12.91;51.47;93541.31;5018025;28;20208;-74
2022/03/31 01:05:18;;;;;;;16.08;5.35;;;;;;;12.92;51.53;93553.75;5019754;28;20208;-75
2022/03/31 01:07:44;;;;;;;17.55;5.43;;;;;;;12.97;51.48;93551.50;5024140;28;20205;-74
2022/03/31 01:10:14;;;;;;;19.70;5.20;;;;;;;12.99;51.42;93537.53;5024220;28;20211;-75
2022/03/31 01:12:41;;;;;;;13.70;5.43;;;;;;;13.01;51.30;93524.34;5018198;28;20235;-74
2022/03/31 01:15:10;;;;;;;22.35;5.50;;;;;;;13.05;51.33;93525.19;5030752;28;20208;-76
2022/03/31 01:17:39;;;;;;;21.60;5.20;;;;;;;13.03;51.44;93527.50;5018394;28;20201;-74
2022/03/31 01:20:10;;;;;;;20.70;5.53;;;;;;;12.98;51.56;93525.91;5018088;28;20205;-74
2022/03/31 01:22:37;;;;;;;17.77;4.85;;;;;;;12.85;52.02;93521.06;5022533;28;20201;-74
2022/03/31 01:25:07;;;;;;;11.55;4.65;;;;;;;12.86;51.94;93523.38;5012975;28;20197;-73
2022/03/31 01:27:36;;;;;;;19.63;4.85;;;;;;;12.80;52.34;93522.94;5020400;28;20658;-75
2022/03/31 01:30:05;;;;;;;13.77;4.47;;;;;;;12.77;52.42;93526.38;5017128;28;20291;-76
2022/03/31 01:32:32;;;;;;;17.92;8.10;;;;;;;12.76;52.71;93518.59;5020851;28;20240;-75
2022/03/31 01:34:59;;;;;;;25.00;7.80;;;;;;;12.80;52.67;93536.53;5024192;28;20216;-75
2022/03/31 01:37:26;;;;;;;18.35;5.50;;;;;;;12.77;52.78;93520.94;5021287;28;20211;-75
2022/03/31 01:39:53;;;;;;;21.98;5.65;;;;;;;12.88;52.40;93526.53;5017418;28;20197;-77
2022/03/31 01:42:22;;;;;;;21.85;5.03;;;;;;;13.07;51.97;93522.88;5020025;28;20660;-74
2022/03/31 01:44:49;;;;;;;19.65;5.05;;;;;;;13.08;51.98;93524.47;5026268;28;20244;-74
2022/03/31 01:47:16;;;;;;;13.02;4.75;;;;;;;13.03;51.92;93527.50;5025003;28;20204;-74
2022/03/31 01:49:43;;;;;;;18.85;5.45;;;;;;;13.05;51.83;93511.59;5021534;28;20254;-75
2022/03/31 01:52:10;;;;;;;17.70;4.90;;;;;;;13.00;52.04;93518.13;5023560;28;20209;-74
2022/03/31 01:54:37;;;;;;;18.73;4.82;;;;;;;12.95;52.29;93525.84;5031494;28;20224;-74
2022/03/31 01:57:05;;;;;;;24.40;5.20;;;;;;;13.08;52.14;93508.16;5023208;28;20209;-78
2022/03/31 01:59:37;;;;;;;14.85;5.03;;;;;;;13.10;51.93;93511.28;5027590;28;20213;-75
2022/03/31 02:02:05;;;;;;;19.95;4.30;;;;;;;13.08;51.89;93519.03;5026728;28;20200;-74
2022/03/31 02:04:32;;;;;;;16.40;4.68;;;;;;;13.08;51.88;93514.38;5020613;28;20219;-74
2022/03/31 02:06:59;;;;;;;16.98;5.00;;;;;;;13.01;52.33;93518.91;5021412;28;20208;-75
2022/03/31 02:09:26;;;;;;;18.50;4.30;;;;;;;13.01;52.06;93499.88;5033449;28;20211;-75
2022/03/31 02:11:53;;;;;;;16.10;4.15;;;;;;;13.00;51.90;93501.03;5033491;28;20596;-76
2022/03/31 02:14:22;;;;;;;18.55;5.35;;;;;;;12.93;52.17;93492.81;5021007;28;20318;-74
2022/03/31 02:16:50;;;;;;;21.45;5.50;;;;;;;12.92;51.67;93500.19;5020620;28;20549;-75
2022/03/31 02:19:17;;;;;;;16.10;4.38;;;;;;;12.94;51.48;93497.09;5026110;28;20598;-75
2022/03/31 02:21:44;;;;;;;15.98;4.70;;;;;;;13.00;51.17;93474.63;5027097;28;20604;-79
2022/03/31 02:24:12;;;;;;;27.23;4.93;;;;;;;12.95;51.48;93476.91;5022102;28;20230;-75
2022/03/31 02:26:40;;;;;;;20.10;5.32;;;;;;;12.84;51.92;93493.09;5020715;28;20268;-75
2022/03/31 02:29:08;;;;;;;22.73;5.55;;;;;;;12.74;52.49;93467.34;5024902;28;20679;-75
2022/03/31 02:31:36;;;;;;;18.65;5.55;;;;;;;12.78;51.98;93478.25;5026748;28;20200;-75
2022/03/31 02:34:04;;;;;;;18.67;5.22;;;;;;;12.83;51.96;93480.66;5022969;28;20251;-76
2022/03/31 02:36:31;;;;;;;23.27;4.97;;;;;;;12.82;52.03;93458.13;5020406;28;20607;-76
2022/03/31 02:38:58;;;;;;;20.98;4.47;;;;;;;12.82;52.18;93477.16;5024296;28;20892;-77
2022/03/31 02:41:25;;;;;;;21.45;5.15;;;;;;;12.80;52.24;93484.91;5026883;28;20682;-75
2022/03/31 02:43:52;;;;;;;19.73;5.72;;;;;;;12.77;52.65;93488.34;5023067;28;20287;-77
2022/03/31 02:46:19;;;;;;;17.42;4.90;;;;;;;12.71;52.81;93478.94;5020547;28;20204;-74
2022/03/31 02:48:46;;;;;;;22.38;5.07;;;;;;;12.73;52.75;93479.34;5023201;28;20201;-74
2022/03/31 02:51:14;;;;;;;21.20;4.93;;;;;;;12.71;52.54;93475.47;5026829;28;20205;-76
2022/03/31 02:56:26;;;;;;;15.48;4.70;;;;;;;12.61;52.81;93457.06;5019505;28;20195;-76
2022/03/31 02:58:53;;;;;;;11.65;4.90;;;;;;;12.57;52.79;93470.63;5019858;28;20567;-75
2022/03/31 03:01:21;;;;;;;18.35;4.40;;;;;;;12.51;53.08;93468.59;5026281;28;20205;-75
2022/03/31 03:03:50;;;;;;;14.75;4.47;;;;;;;12.43;53.14;93478.59;5026597;28;20208;-72
2022/03/31 03:06:19;;;;;;;14.18;4.82;;;;;;;12.25;53.28;93455.81;5020965;28;20705;-76
2022/03/31 03:08:46;;;;;;;18.88;4.68;;;;;;;12.26;53.43;93451.97;5018433;28;20212;-75
2022/03/31 03:11:17;;;;;;;11.15;4.50;;;;;;;12.17;53.25;93470.44;5021371;28;20242;-75
2022/03/31 03:13:44;;;;;;;17.67;4.90;;;;;;;12.05;53.81;93474.91;5019888;28;20227;-75
2022/03/31 03:16:12;;;;;;;20.55;5.13;;;;;;;11.96;53.83;93454.63;5023619;28;20252;-75
2022/03/31 03:18:39;;;;;;;17.75;4.85;;;;;;;12.06;54.14;93476.50;5026116;28;20221;-74
2022/03/31 03:21:07;;;;;;;15.50;5.30;;;;;;;12.05;53.88;93485.78;5022863;28;20291;-74
2022/03/31 03:23:37;;;;;;;17.13;5.20;;;;;;;12.02;54.25;93470.25;5017958;28;20204;-74
2022/03/31 03:26:04;;;;;;;18.25;5.38;;;;;;;12.01;53.81;93479.53;5023202;28;20238;-75
2022/03/31 03:28:36;;;;;;;11.05;4.95;;;;;;;11.99;53.82;93470.97;5019511;28;20228;-74
2022/03/31 03:31:05;;;;;;;17.55;4.82;;;;;;;11.96;53.88;93468.97;5021497;28;20671;-76
2022/03/31 03:33:32;;;;;;;18.80;5.20;;;;;;;11.88;54.21;93464.59;5025388;28;20778;-75
2022/03/31 03:35:59;;;;;;;20.30;4.72;;;;;;;11.85;53.95;93462.59;5024208;28;20276;-73
2022/03/31 03:38:25;;;;;;;16.92;5.88;;;;;;;11.87;53.94;93452.16;5019103;28;20547;-75
2022/03/31 03:40:54;;;;;;;14.68;4.45;;;;;;;11.88;54.17;93442.09;5021004;28;20205;-74
2022/03/31 03:43:21;;;;;;;11.23;4.20;;;;;;;11.83;54.46;93450.53;5026021;28;20228;-75
2022/03/31 03:45:48;;;;;;;13.45;4.28;;;;;;;11.80;54.75;93456.69;5024626;28;20197;-75
2022/03/31 03:48:15;;;;;;;9.32;4.10;;;;;;;11.85;54.58;93459.88;5018550;28;20229;-75
2022/03/31 03:50:42;;;;;;;15.13;5.63;;;;;;;11.86;55.15;93455.25;5019914;28;20232;-75
2022/03/31 03:53:09;;;;;;;14.20;4.00;;;;;;;11.88;54.64;93453.75;5017363;28;20671;-74
2022/03/31 03:55:38;;;;;;;18.17;5.65;;;;;;;11.83;54.42;93445.13;5019609;28;20212;-75
2022/03/31 03:58:06;;;;;;;14.80;4.60;;;;;;;11.80;54.54;93452.03;5031951;28;20196;-75
2022/03/31 04:00:33;;;;;;;9.38;3.97;;;;;;;11.71;54.77;93454.19;5019185;28;20220;-77
2022/03/31 04:03:00;;;;;;;10.18;5.10;;;;;;;11.73;54.20;93446.50;5018238;28;20200;-72
2022/03/31 04:05:27;;;;;;;15.23;5.95;;;;;;;11.76;54.35;93443.06;5018471;28;20205;-75
2022/03/31 04:07:54;;;;;;;20.13;6.32;;;;;;;11.72;54.58;93455.78;5025270;28;20208;-74
2022/03/31 04:10:21;;;;;;;19.65;6.00;;;;;;;11.67;54.67;93453.34;5026239;28;20208;-75
2022/03/31 04:12:48;;;;;;;14.30;4.45;;;;;;;11.71;55.04;93460.41;5023798;28;20553;-75
2022/03/31 04:15:17;;;;;;;12.63;4.18;;;;;;;11.64;54.89;93464.91;5026550;28;20232;-75
2022/03/31 04:17:44;;;;;;;15.77;5.10;;;;;;;11.74;55.03;93480.63;5023614;28;20208;-75
2022/03/31 04:20:13;;;;;;;17.50;4.47;;;;;;;11.83;54.73;93494.72;5024638;28;20250;-74
2022/03/31 04:22:40;;;;;;;13.73;4.70;;;;;;;11.89;54.44;93493.28;5020573;28;20200;-74
2022/03/31 04:25:08;;;;;;;9.68;3.70;;;;;;;11.86;54.46;93499.44;5026962;28;20224;-75
2022/03/31 04:27:36;;;;;;;15.82;4.55;;;;;;;11.86;54.39;93493.22;5020216;28;20614;-74
2022/03/31 04:30:04;;;;;;;19.67;9.93;;;;;;;11.80;54.37;93487.31;5017823;28;20212;-74
2022/03/31 04:32:32;;;;;;;11.57;3.72;;;;;;;11.71;54.95;93470.47;5022411;28;20204;-74
2022/03/31 04:34:59;;;;;;;14.57;5.60;;;;;;;11.72;55.21;93499.19;5027367;28;20235;-76
2022/03/31 04:37:26;;;;;;;15.60;6.55;;;;;;;11.69;55.42;93497.97;5021763;28;20201;-74
2022/03/31 04:39:54;;;;;;;21.63;6.10;;;;;;;11.54;56.34;93492.66;5024467;28;20201;-75
2022/03/31 04:42:21;;;;;;;13.80;3.78;;;;;;;11.45;57.00;93489.41;5021483;28;20679;-78
2022/03/31 04:44:48;;;;;;;12.85;5.85;;;;;;;11.29;59.96;93476.72;5017752;28;20292;-75
2022/03/31 04:47:15;;;;;;;18.45;4.75;;;;;;;11.30;58.27;93472.88;5021045;28;20209;-73
2022/03/31 04:49:44;;;;;;;4.25;1.98;;;;;;;11.40;58.17;93471.50;5024533;28;20259;-76
2022/03/31 04:52:11;;;;;;;9.50;2.85;;;;;;;11.47;57.62;93465.44;5022332;28;20251;-75
2022/03/31 04:54:43;;;;;;;11.68;5.10;;;;;;;11.42;57.99;93477.34;5017682;28;20232;-74
2022/03/31 04:57:11;;;;;;;11.88;4.53;;;;;;;11.48;58.88;93499.53;5018941;28;20197;-77
2022/03/31 04:59:41;;;;;;;13.25;5.22;;;;;;;11.56;58.65;93510.13;5024505;28;20212;-75
2022/03/31 05:02:08;;;;;;;17.95;5.40;;;;;;;11.52;58.50;93500.38;5024315;28;20363;-74
2022/03/31 05:04:35;;;;;;;19.70;5.07;;;;;;;11.71;58.28;93489.47;5017296;28;20671;-74
2022/03/31 05:07:04;;;;;;;16.20;6.32;;;;;;;11.65;58.44;93477.34;5017345;28;20204;-75
2022/03/31 05:09:31;;;;;;;17.65;5.68;;;;;;;11.62;58.85;93457.16;5018481;28;20204;-74
2022/03/31 05:11:58;;;;;;;24.33;6.43;;;;;;;11.64;60.04;93464.91;5030011;28;20211;-76
2022/03/31 05:14:25;;;;;;;18.10;4.93;;;;;;;11.66;60.14;93476.19;5018681;28;20319;-75
2022/03/31 05:16:52;;;;;;;16.83;5.20;;;;;;;11.70;59.55;93483.25;5017619;28;20200;-75
2022/03/31 05:19:21;;;;;;;18.48;5.75;;;;;;;11.75;58.61;93487.59;5023004;28;20212;-75
2022/03/31 05:21:48;;;;;;;21.40;6.18;;;;;;;11.71;60.13;93492.97;5023908;28;20212;-75
2022/03/31 05:24:16;;;;;;;22.90;6.55;;;;;;;11.66;59.09;93481.63;5013208;28;20224;-75
2022/03/31 05:26:44;;;;;;;14.13;6.10;;;;;;;11.89;57.65;93493.28;5024239;28;20204;-75
2022/03/31 05:29:13;;;;;;;25.40;6.15;;;;;;;11.94;58.10;93509.25;5010994;28;20664;-73
2022/03/31 05:31:40;;;;;;;20.52;5.03;;;;;;;11.92;57.37;93497.97;5024179;28;20228;-76
2022/03/31 05:34:07;;;;;;;16.38;5.13;;;;;;;12.00;58.08;93515.16;5020070;28;20270;-75
2022/03/31 05:36:34;;;;;;;22.50;5.40;;;;;;;12.07;58.24;93521.47;5017422;28;20587;-76
2022/03/31 05:39:02;;;;;;;15.70;5.75;;;;;;;12.12;57.29;93525.84;5020627;28;20243;-76
2022/03/31 05:41:31;;;;;;;27.80;6.18;;;;;;;12.15;57.14;93519.69;5024217;28;20267;-76
2022/03/31 05:43:58;;;;;;;18.35;5.40;;;;;;;12.24;58.03;93525.63;5012029;28;20252;-75
2022/03/31 05:46:26;;;;;;;20.95;7.05;;;;;;;12.31;58.28;93530.38;5012588;28;20703;-77
2022/03/31 05:48:53;;;;;;;23.52;7.25;;;;;;;12.23;58.12;93523.28;5015731;28;20223;-74
2022/03/31 05:51:20;;;;;;;18.42;6.75;;;;;;;12.17;57.93;93519.28;5028949;28;20218;-74
2022/03/31 05:53:47;;;;;;;18.73;6.03;;;;;;;12.18;58.74;93518.16;5022698;28;20207;-74
2022/03/31 05:56:14;;;;;;;18.13;6.38;;;;;;;12.22;58.43;93494.56;5025098;28;20205;-74
2022/03/31 05:58:42;;;;;;;20.95;5.45;;;;;;;12.24;59.21;93492.25;5021894;28;20201;-76
2022/03/31 06:01:09;;;;;;;20.40;7.07;;;;;;;12.28;62.29;93477.59;5017108;28;20200;-75
2022/03/31 06:03:36;;;;;;;18.73;5.22;;;;;;;12.40;59.23;93474.66;5017695;28;20691;-76
2022/03/31 06:06:03;;;;;;;15.88;5.20;;;;;;;12.57;60.01;93470.63;5024707;28;20710;-77
2022/03/31 06:08:30;;;;;;;12.10;3.90;;;;;;;12.76;60.13;93453.38;5019055;28;20648;-73
2022/03/31 06:10:57;;;;;;;18.85;5.28;;;;;;;12.94;60.38;93461.75;5026529;28;20205;-76
2022/03/31 06:13:26;;;;;;;25.80;5.40;;;;;;;13.10;60.87;93470.50;5022824;28;20571;-74
2022/03/31 06:15:54;;;;;;;16.50;4.72;;;;;;;13.27;60.71;93456.31;5016799;28;20235;-74
2022/03/31 06:18:22;;;;;;;14.57;3.92;;;;;;;13.39;60.58;93442.44;5029166;28;20204;-74
2022/03/31 06:20:52;;;;;;;20.13;4.47;;;;;;;13.47;60.42;93444.09;5022349;28;20201;-74
2022/03/31 06:23:19;;;;;;;23.13;4.88;;;;;;;13.55;60.40;93460.47;5020597;28;21664;-75
2022/03/31 06:25:46;;;;;;;24.67;4.15;;;;;;;13.77;59.02;93456.81;5013634;28;20196;-76
2022/03/31 06:28:14;;;;;;;38.60;6.28;;;;;;;14.01;58.53;93469.84;5017771;28;20267;-76
2022/03/31 06:30:41;;;;;;;32.17;5.75;;;;;;;14.12;58.27;93467.97;5021340;28;20196;-75
2022/03/31 06:33:10;;;;;;;30.55;6.00;;;;;;;14.19;58.52;93476.19;5018977;28;20216;-75
2022/03/31 06:35:39;;;;;;;21.80;5.13;;;;;;;14.25;58.63;93498.41;5013422;28;20268;-76
2022/03/31 06:38:07;;;;;;;31.85;8.25;;;;;;;14.22;58.29;93489.03;5028851;28;20211;-77
2022/03/31 06:40:37;;;;;;;22.67;4.38;;;;;;;14.27;58.02;93506.19;5023833;28;20223;-74
2022/03/31 06:43:04;;;;;;;35.15;6.32;;;;;;;14.32;57.99;93497.69;5016509;28;20201;-75
2022/03/31 06:45:32;;;;;;;24.13;5.30;;;;;;;14.44;56.90;93500.13;5023371;28;20240;-75
2022/03/31 06:48:00;;;;;;;32.60;7.55;;;;;;;14.49;56.91;93502.47;5020342;28;20200;-74
2022/03/31 06:50:30;;;;;;;29.10;5.10;;;;;;;14.64;55.91;93485.06;5022437;28;20208;-76
2022/03/31 06:52:58;;;;;;;27.80;5.68;;;;;;;14.75;55.67;93480.47;5026259;28;20299;-77
2022/03/31 06:55:25;;;;;;;27.00;5.40;;;;;;;14.88;54.90;93503.50;5024332;28;20239;-75
2022/03/31 06:57:52;;;;;;;23.25;5.35;;;;;;;14.93;55.28;93494.16;5019616;28;20208;-74
2022/03/31 07:00:20;;;;;;;36.13;5.95;;;;;;;14.96;55.08;93492.63;5021985;28;20212;-74
2022/03/31 07:02:47;;;;;;;28.88;5.22;;;;;;;15.02;53.97;93472.81;5026821;28;20299;-74
2022/03/31 07:05:14;;;;;;;34.42;5.82;;;;;;;14.85;54.97;93495.31;5025344;28;20212;-72
2022/03/31 07:07:42;;;;;;;30.33;5.70;;;;;;;15.10;54.68;93481.78;5019554;28;20208;-71
2022/03/31 07:10:11;;;;;;;25.67;5.82;;;;;;;15.20;54.01;93487.28;5019807;28;20307;-74
2022/03/31 07:12:39;;;;;;;32.40;5.90;;;;;;;15.32;53.60;93468.97;5025963;28;20236;-75
2022/03/31 07:15:07;;;;;;;22.27;4.78;;;;;;;15.43;53.69;93465.16;5026353;28;20228;-76
2022/03/31 07:17:35;;;;;;;26.90;4.93;;;;;;;15.12;53.41;93458.41;5026084;28;20568;-78
2022/03/31 07:20:02;;;;;;;31.52;6.28;;;;;;;14.87;54.29;93463.78;5026284;28;20215;-72
2022/03/31 07:22:28;;;;;;;25.10;5.75;;;;;;;15.31;53.79;93475.63;5019630;28;20564;-75
2022/03/31 07:24:57;;;;;;;23.27;5.35;;;;;;;15.33;52.95;93463.16;5029804;28;20220;-72
2022/03/31 07:27:23;;;;;;;31.45;6.57;;;;;;;15.53;52.41;93448.00;5025392;28;20212;-76
2022/03/31 07:29:50;;;;;;;29.40;6.07;;;;;;;15.86;51.94;93446.09;5026321;28;20212;-75
2022/03/31 07:32:17;;;;;;;28.48;5.63;;;;;;;16.04;51.58;93457.81;5020346;28;20200;-76
2022/03/31 07:34:44;;;;;;;25.50;5.80;;;;;;;16.15;50.93;93491.38;5019117;28;20635;-76
2022/03/31 07:37:11;;;;;;;30.88;5.75;;;;;;;16.31;50.50;93456.25;5024836;28;20212;-79
2022/03/31 07:39:41;;;;;;;24.48;5.63;;;;;;;16.30;50.86;93465.59;5025858;28;20196;-78
2022/03/31 07:42:09;;;;;;;37.60;6.57;;;;;;;16.48;50.38;93454.66;5019003;28;20199;-76
2022/03/31 07:44:36;;;;;;;23.50;5.63;;;;;;;16.42;50.45;93463.63;5023693;28;20225;-72
2022/03/31 07:47:03;;;;;;;21.25;5.43;;;;;;;16.40;50.29;93476.94;5020978;28;20201;-76
2022/03/31 07:49:30;;;;;;;30.95;5.78;;;;;;;16.34;50.41;93452.72;5025569;28;20575;-77
2022/03/31 07:51:57;;;;;;;28.60;5.25;;;;;;;16.62;50.51;93453.84;5022222;28;20212;-76
2022/03/31 07:54:24;;;;;;;29.50;5.72;;;;;;;16.47;50.42;93468.72;5028809;28;20209;-79
2022/03/31 07:56:52;;;;;;;23.83;5.45;;;;;;;16.09;51.09;93460.16;5021957;28;20208;-77
2022/03/31 07:59:23;;;;;;;25.20;6.32;;;;;;;16.37;51.01;93464.06;5029108;28;20197;-76
2022/03/31 08:01:51;;;;;;;32.58;6.95;;;;;;;16.42;50.30;93441.75;5021019;28;20251;-77
2022/03/31 08:04:18;;;;;;;34.83;6.72;;;;;;;16.75;49.98;93448.75;5012090;28;20208;-76
2022/03/31 08:06:44;;;;;;;31.08;6.00;;;;;;;16.59;49.81;93454.63;5012518;28;20208;-79
2022/03/31 08:09:13;;;;;;;29.98;5.47;;;;;;;16.22;50.62;93442.19;5013210;28;20682;-74
2022/03/31 08:11:41;;;;;;;23.25;4.70;;;;;;;16.59;50.27;93440.97;5022227;28;20221;-74
2022/03/31 08:14:08;;;;;;;23.38;5.45;;;;;;;16.51;50.08;93450.38;5017659;28;20247;-72
2022/03/31 08:16:36;;;;;;;22.60;5.47;;;;;;;16.44;50.05;93458.56;5019936;28;20634;-76
2022/03/31 08:19:03;;;;;;;35.58;5.80;;;;;;;16.46;50.41;93467.94;5025355;28;20683;-77
2022/03/31 08:21:31;;;;;;;31.63;5.05;;;;;;;16.37;50.54;93453.13;5023395;28;20204;-78
2022/03/31 08:23:58;;;;;;;16.42;4.70;;;;;;;16.57;50.22;93451.50;5017081;28;20244;-74
2022/03/31 08:26:25;;;;;;;27.48;5.40;;;;;;;16.84;49.50;93433.50;5018196;28;20205;-75
2022/03/31 08:28:52;;;;;;;22.33;4.95;;;;;;;16.94;49.09;93394.38;5024614;28;20284;-75
2022/03/31 08:31:19;;;;;;;27.80;6.25;;;;;;;17.10;48.70;93406.81;5024704;28;20201;-76
2022/03/31 08:33:47;;;;;;;30.85;4.75;;;;;;;16.98;48.94;93406.06;5018040;28;20209;-76
2022/03/31 08:36:14;;;;;;;25.58;5.68;;;;;;;17.25;48.91;93419.25;5018609;28;20295;-76
2022/03/31 08:38:43;;;;;;;28.35;5.03;;;;;;;17.69;47.31;93394.75;5023642;28;20212;-74
2022/03/31 08:41:11;;;;;;;25.77;5.40;;;;;;;17.70;47.24;93422.91;5025694;28;20203;-75
2022/03/31 08:43:41;;;;;;;25.73;4.97;;;;;;;17.88;47.38;93401.66;5022957;28;20245;-76
2022/03/31 08:46:11;;;;;;;27.08;5.45;;;;;;;18.16;46.58;93433.53;5024778;28;20192;-76
2022/03/31 08:48:38;;;;;;;27.33;5.53;;;;;;;18.25;45.63;93414.63;5020866;28;20209;-73
2022/03/31 08:51:07;;;;;;;28.98;5.55;;;;;;;18.41;45.49;93414.88;5018194;28;20213;-76
2022/03/31 08:53:34;;;;;;;34.85;5.53;;;;;;;18.16;45.89;93430.78;5020846;28;20270;-74
2022/03/31 08:56:02;;;;;;;28.02;5.60;;;;;;;18.04;46.52;93415.59;5024775;28;20228;-76
2022/03/31 08:58:28;;;;;;;28.55;4.97;;;;;;;18.02;46.53;93422.69;5021119;28;20212;-70
2022/03/31 09:00:55;;;;;;;29.88;5.72;;;;;;;17.74;47.17;93412.72;5017782;28;20196;-77
2022/03/31 09:03:33;;;;;;;24.20;5.13;;;;;;;17.61;47.88;93426.09;5021264;28;20208;-78
2022/03/31 09:06:00;;;;;;;32.75;5.95;;;;;;;17.73;47.73;93403.72;5024622;28;20204;-77
2022/03/31 09:08:29;;;;;;;25.05;5.28;;;;;;;17.87;47.25;93418.50;5023412;28;20208;-74
2022/03/31 09:11:00;;;;;;;32.75;5.45;;;;;;;17.36;48.39;93403.53;5017687;28;20205;-74
2022/03/31 09:13:30;;;;;;;23.83;5.80;;;;;;;17.82;47.57;93427.13;5017855;28;20200;-75
2022/03/31 09:16:00;;;;;;;25.88;5.07;;;;;;;18.21;47.24;93422.13;5017272;28;20266;-76
2022/03/31 09:18:30;;;;;;;22.80;5.25;;;;;;;18.43;45.94;93409.78;5017770;28;20288;-75
2022/03/31 09:20:58;;;;;;;21.08;4.70;;;;;;;18.39;45.88;93400.81;5023040;28;20648;-75
2022/03/31 09:23:27;;;;;;;33.33;6.95;;;;;;;18.53;45.58;93385.38;5023565;28;20217;-76
2022/03/31 09:26:02;;;;;;;22.33;4.75;;;;;;;18.54;45.91;93414.38;5022487;28;20212;-77
2022/03/31 09:28:30;;;;;;;22.23;5.40;;;;;;;18.62;46.10;93393.94;5023817;28;20205;-78
2022/03/31 09:30:57;;;;;;;77.55;7.47;;;;;;;18.61;45.76;93384.13;5020845;28;20208;-78
2022/03/31 09:33:29;;;;;;;26.50;5.45;;;;;;;18.69;45.52;93382.88;5017809;28;20531;-78
2022/03/31 09:36:00;;;;;;;25.67;5.53;;;;;;;18.61;45.52;93345.75;5019754;28;20703;-75
2022/03/31 09:38:27;;;;;;;37.10;6.20;;;;;;;18.86;45.09;93357.19;5024385;28;20572;-79
2022/03/31 09:40:57;;;;;;;35.95;4.75;;;;;;;18.93;45.25;93357.13;5022594;28;20208;-77
2022/03/31 09:43:24;;;;;;;25.13;4.63;;;;;;;19.28;44.71;93322.13;5017619;28;20238;-77
2022/03/31 09:45:51;;;;;;;50.35;5.55;;;;;;;19.40;44.29;93321.56;5017623;28;20636;-75
2022/03/31 09:48:19;;;;;;;19.15;4.18;;;;;;;19.17;44.67;93325.81;5024023;28;20220;-73
2022/03/31 09:50:46;;;;;;;26.88;4.50;;;;;;;19.34;44.63;93343.22;5024022;28;20200;-73
2022/03/31 09:53:15;;;;;;;21.98;3.78;;;;;;;19.20;44.81;93356.38;5017419;28;20204;-76
2022/03/31 09:55:43;;;;;;;30.67;4.55;;;;;;;19.32;44.78;93353.06;5017344;28;20256;-78
2022/03/31 09:58:18;;;;;;;31.67;4.85;;;;;;;19.61;44.18;93346.00;5023093;28;20205;-76
2022/03/31 10:00:45;;;;;;;26.88;4.65;;;;;;;19.82;43.77;93336.63;5012408;28;20193;-78
2022/03/31 10:03:14;;;;;;;25.50;4.53;;;;;;;19.74;44.28;93352.47;5022004;28;20289;-75
2022/03/31 10:05:45;;;;;;;30.83;4.75;;;;;;;19.85;43.42;93331.06;5026133;28;20306;-75
2022/03/31 10:08:13;;;;;;;28.90;5.30;;;;;;;20.13;42.86;93304.28;5023751;28;20196;-75
2022/03/31 10:10:40;;;;;;;29.52;4.68;;;;;;;20.43;41.96;93308.88;5034107;28;20262;-76
2022/03/31 10:13:18;;;;;;;25.65;5.20;;;;;;;20.27;41.92;93309.53;5024142;28;20208;-76
2022/03/31 10:15:47;;;;;;;36.33;5.20;;;;;;;20.17;42.43;93335.25;5026993;28;20221;-77
2022/03/31 10:18:16;;;;;;;35.08;6.40;;;;;;;19.95;42.69;93340.34;5025771;28;20204;-78
2022/03/31 10:20:54;;;;;;;16.65;4.57;;;;;;;20.09;42.72;93333.84;5020866;28;20266;-78
2022/03/31 10:26:05;;;;;;;32.80;5.63;;;;;;;20.26;42.09;93318.97;5024662;28;20667;-77
2022/03/31 10:28:34;;;;;;;29.25;5.40;;;;;;;20.53;41.58;93314.16;5027170;28;20213;-76
2022/03/31 10:31:04;;;;;;;27.13;5.93;;;;;;;20.35;41.97;93297.22;5024142;28;20200;-71
2022/03/31 10:33:32;;;;;;;23.98;5.43;;;;;;;20.45;41.71;93293.50;5020031;28;20686;-79
2022/03/31 10:36:12;;;;;;;28.23;4.75;;;;;;;20.51;41.62;93275.28;5022028;28;20228;-77
2022/03/31 10:38:40;;;;;;;36.50;5.55;;;;;;;20.43;41.47;93273.88;5020606;28;20196;-76
2022/03/31 10:41:11;;;;;;;21.70;4.93;;;;;;;20.61;41.35;93283.78;5020247;28;20204;-73
2022/03/31 10:43:48;;;;;;;36.42;5.60;;;;;;;20.95;41.41;93289.72;5026112;28;20638;-76
2022/03/31 10:46:16;;;;;;;29.98;5.45;;;;;;;20.72;41.30;93287.06;5026359;28;20551;-77
2022/03/31 10:48:50;;;;;;;23.33;4.88;;;;;;;20.50;42.10;93287.47;5022250;28;20213;-76
2022/03/31 10:51:17;;;;;;;20.85;4.18;;;;;;;20.05;42.51;93280.88;5020147;28;20655;-76
2022/03/31 10:53:49;;;;;;;22.23;5.00;;;;;;;20.01;42.92;93274.66;5023698;28;20212;-77
2022/03/31 10:56:19;;;;;;;24.73;5.05;;;;;;;20.01;42.82;93266.41;5026997;28;20259;-73
2022/03/31 10:58:52;;;;;;;22.42;4.68;;;;;;;20.16;42.73;93295.19;5024281;28;20743;-76
2022/03/31 11:01:20;;;;;;;29.45;5.20;;;;;;;20.10;42.61;93275.66;5027326;28;20568;-78
2022/03/31 11:03:49;;;;;;;23.40;4.28;;;;;;;20.66;41.95;93264.00;5025649;28;20209;-77
2022/03/31 11:06:18;;;;;;;31.80;5.75;;;;;;;20.79;41.41;93273.16;5019705;28;20200;-77
2022/03/31 11:08:46;;;;;;;27.65;4.28;;;;;;;20.76;41.21;93274.03;5021187;28;20205;-75
2022/03/31 11:11:21;;;;;;;29.73;4.35;;;;;;;20.33;42.11;93304.31;5033205;28;20200;-76
2022/03/31 11:13:49;;;;;;;18.50;4.65;;;;;;;20.18;42.71;93325.81;5019308;28;20208;-74
2022/03/31 11:16:16;;;;;;;118.95;9.77;;;;;;;20.30;42.54;93292.19;5022263;28;20232;-73
2022/03/31 11:18:44;;;;;;;27.10;4.65;;;;;;;20.34;42.15;93262.66;5029372;28;20204;-77
2022/03/31 11:21:11;;;;;;;43.13;5.53;;;;;;;20.45;42.23;93285.25;5022365;28;20239;-74
2022/03/31 11:23:47;;;;;;;37.38;5.47;;;;;;;20.48;42.47;93273.41;5014340;28;20221;-75
2022/03/31 11:26:17;;;;;;;33.63;5.88;;;;;;;20.41;42.33;93257.03;5012872;28;20228;-76
2022/03/31 11:28:45;;;;;;;38.60;5.85;;;;;;;20.66;41.97;93277.75;5026124;28;20243;-76
2022/03/31 11:31:14;;;;;;;31.27;4.68;;;;;;;20.61;42.14;93270.00;5025026;28;20215;-77
2022/03/31 11:33:41;;;;;;;25.30;4.20;;;;;;;20.09;43.59;93282.34;5019388;28;20282;-77